createdAt,value
2019-02-07T00:00:24.378Z,1034.57
2019-02-07T00:01:24.362Z,1034.59
2019-02-07T00:02:24.345Z,1034.57
2019-02-07T00:03:24.329Z,1034.55
2019-02-07T00:04:24.315Z,1034.54
2019-02-07T00:05:24.299Z,1034.57
2019-02-07T00:06:24.283Z,1034.58
2019-02-07T00:07:24.272Z,1034.59
2019-02-07T00:08:24.252Z,1034.65
2019-02-07T00:09:24.236Z,1034.66
2019-02-07T00:10:24.220Z,1034.69
2019-02-07T00:11:24.204Z,1034.7
2019-02-07T00:12:24.188Z,1034.7
2019-02-07T00:13:24.174Z,1034.74
2019-02-07T00:14:24.160Z,1034.72
2019-02-07T00:15:24.139Z,1034.67
2019-02-07T00:16:24.125Z,1034.71
2019-02-07T00:17:24.109Z,1034.7
2019-02-07T00:18:24.091Z,1034.74
2019-02-07T00:19:24.076Z,1034.71
2019-02-07T00:20:24.061Z,1034.71
2019-02-07T00:21:24.044Z,1034.71
2019-02-07T00:22:24.029Z,1034.73
2019-02-07T00:23:24.013Z,1034.72
2019-02-07T00:24:23.997Z,1034.71
2019-02-07T00:25:23.980Z,1034.7
2019-02-07T00:26:23.964Z,1034.67
2019-02-07T00:27:23.948Z,1034.66
2019-02-07T00:28:23.935Z,1034.69
2019-02-07T00:29:23.916Z,1034.64
2019-02-07T00:30:23.900Z,1034.66
2019-02-07T00:31:23.886Z,1034.66
2019-02-07T00:32:23.868Z,1034.7
2019-02-07T00:33:23.858Z,1034.7
2019-02-07T00:34:23.835Z,1034.65
2019-02-07T00:35:23.819Z,1034.68
2019-02-07T00:36:23.815Z,1034.63
2019-02-07T00:37:23.786Z,1034.64
2019-02-07T00:38:23.772Z,1034.67
2019-02-07T00:39:23.755Z,1034.63
2019-02-07T00:40:23.736Z,1034.6
2019-02-07T00:41:23.720Z,1034.64
2019-02-07T00:42:23.705Z,1034.7
2019-02-07T00:43:23.690Z,1034.6
2019-02-07T00:44:23.672Z,1034.63
2019-02-07T00:45:23.659Z,1034.62
2019-02-07T00:46:23.640Z,1034.68
2019-02-07T00:47:23.623Z,1034.69
2019-02-07T00:48:23.607Z,1034.68
2019-02-07T00:49:23.593Z,1034.71
2019-02-07T00:50:23.574Z,1034.65
2019-02-07T00:51:23.558Z,1034.68
2019-02-07T00:52:23.542Z,1034.62
2019-02-07T00:53:23.524Z,1034.63
2019-02-07T00:54:23.508Z,1034.61
2019-02-07T00:55:23.492Z,1034.61
2019-02-07T00:56:23.476Z,1034.6
2019-02-07T00:57:23.458Z,1034.56
2019-02-07T00:58:23.443Z,1034.6
2019-02-07T00:59:23.426Z,1034.62
2019-02-07T01:00:23.410Z,1034.65
2019-02-07T01:01:23.394Z,1034.65
2019-02-07T01:02:23.377Z,1034.65
2019-02-07T01:03:23.360Z,1034.61
2019-02-07T01:04:23.343Z,1034.58
2019-02-07T01:05:23.332Z,1034.59
2019-02-07T01:06:23.309Z,1034.58
2019-02-07T01:07:23.294Z,1034.54
2019-02-07T01:08:23.278Z,1034.55
2019-02-07T01:09:23.259Z,1034.56
2019-02-07T01:10:23.243Z,1034.62
2019-02-07T01:11:23.227Z,1034.66
2019-02-07T01:12:23.212Z,1034.66
2019-02-07T01:13:23.194Z,1034.64
2019-02-07T01:14:23.179Z,1034.67
2019-02-07T01:15:23.163Z,1034.66
2019-02-07T01:16:23.145Z,1034.66
2019-02-07T01:17:23.128Z,1034.65
2019-02-07T01:18:23.112Z,1034.68
2019-02-07T01:19:23.095Z,1034.64
2019-02-07T01:20:23.077Z,1034.62
2019-02-07T01:21:23.061Z,1034.62
2019-02-07T01:22:23.045Z,1034.63
2019-02-07T01:23:23.029Z,1034.58
2019-02-07T01:24:23.011Z,1034.6
2019-02-07T01:25:22.994Z,1034.53
2019-02-07T01:26:22.978Z,1034.55
2019-02-07T01:27:22.960Z,1034.5
2019-02-07T01:28:22.944Z,1034.53
2019-02-07T01:29:22.928Z,1034.57
2019-02-07T01:30:22.911Z,1034.54
2019-02-07T01:31:22.893Z,1034.55
2019-02-07T01:32:22.876Z,1034.53
2019-02-07T01:33:22.860Z,1034.49
2019-02-07T01:34:22.843Z,1034.56
2019-02-07T01:35:22.828Z,1034.51
2019-02-07T01:36:22.810Z,1034.5
2019-02-07T01:37:22.793Z,1034.52
2019-02-07T01:38:22.776Z,1034.48
2019-02-07T01:39:22.758Z,1034.43
2019-02-07T01:40:22.742Z,1034.47
2019-02-07T01:41:22.727Z,1034.44
2019-02-07T01:42:22.709Z,1034.47
2019-02-07T01:43:22.691Z,1034.46
2019-02-07T01:44:22.675Z,1034.42
2019-02-07T01:45:22.656Z,1034.44
2019-02-07T01:46:22.641Z,1034.4
2019-02-07T01:47:22.624Z,1034.38
2019-02-07T01:48:22.607Z,1034.34
2019-02-07T01:49:22.589Z,1034.34
2019-02-07T01:50:22.574Z,1034.35
2019-02-07T01:51:22.558Z,1034.31
2019-02-07T01:52:22.540Z,1034.27
2019-02-07T01:53:22.523Z,1034.25
2019-02-07T01:54:22.505Z,1034.24
2019-02-07T01:55:22.495Z,1034.25
2019-02-07T01:56:22.471Z,1034.22
2019-02-07T01:57:22.453Z,1034.32
2019-02-07T01:58:22.436Z,1034.22
2019-02-07T01:59:22.421Z,1034.26
2019-02-07T02:00:22.403Z,1034.25
2019-02-07T02:01:22.388Z,1034.18
2019-02-07T02:02:22.368Z,1034.17
2019-02-07T02:03:22.353Z,1034.16
2019-02-07T02:04:22.338Z,1034.22
2019-02-07T02:05:22.319Z,1034.24
2019-02-07T02:06:22.302Z,1034.21
2019-02-07T02:07:22.284Z,1034.23
2019-02-07T02:08:22.267Z,1034.23
2019-02-07T02:09:22.253Z,1034.22
2019-02-07T02:10:22.232Z,1034.27
2019-02-07T02:11:22.215Z,1034.26
2019-02-07T02:12:22.199Z,1034.27
2019-02-07T02:13:22.183Z,1034.29
2019-02-07T02:14:22.165Z,1034.28
2019-02-07T02:15:24.802Z,1034.22
2019-02-07T02:16:24.071Z,1034.2
2019-02-07T02:17:22.113Z,1034.17
2019-02-07T02:18:22.096Z,1034.16
2019-02-07T02:19:22.080Z,1034.16
2019-02-07T02:20:22.060Z,1034.15
2019-02-07T02:21:22.044Z,1034.15
2019-02-07T02:22:22.027Z,1034.15
2019-02-07T02:23:22.011Z,1034.11
2019-02-07T02:24:21.993Z,1034.11
2019-02-07T02:25:21.978Z,1034.11
2019-02-07T02:26:21.957Z,1034.07
2019-02-07T02:27:21.941Z,1034.12
2019-02-07T02:28:21.925Z,1034.11
2019-02-07T02:29:21.907Z,1034.14
2019-02-07T02:30:21.891Z,1034.13
2019-02-07T02:31:21.873Z,1034.11
2019-02-07T02:32:21.855Z,1034.1
2019-02-07T02:33:21.840Z,1034.06
2019-02-07T02:34:21.822Z,1034.04
2019-02-07T02:35:21.804Z,1034.02
2019-02-07T02:36:21.788Z,1033.95
2019-02-07T02:37:21.769Z,1033.99
2019-02-07T02:38:21.751Z,1033.93
2019-02-07T02:39:21.736Z,1033.94
2019-02-07T02:40:21.717Z,1033.91
2019-02-07T02:41:21.703Z,1033.89
2019-02-07T02:42:21.684Z,1033.89
2019-02-07T02:43:21.667Z,1033.84
2019-02-07T02:44:21.648Z,1033.82
2019-02-07T02:45:21.634Z,1033.81
2019-02-07T02:46:21.615Z,1033.77
2019-02-07T02:47:21.599Z,1033.74
2019-02-07T02:48:21.581Z,1033.74
2019-02-07T02:49:21.564Z,1033.73
2019-02-07T02:50:21.550Z,1033.72
2019-02-07T02:51:21.531Z,1033.72
2019-02-07T02:52:21.512Z,1033.72
2019-02-07T02:53:21.497Z,1033.76
2019-02-07T02:54:21.479Z,1033.73
2019-02-07T02:55:21.460Z,1033.7
2019-02-07T02:56:21.446Z,1033.7
2019-02-07T02:57:21.428Z,1033.72
2019-02-07T02:58:21.407Z,1033.75
2019-02-07T02:59:21.391Z,1033.8
2019-02-07T03:00:21.376Z,1033.81
2019-02-07T03:01:21.357Z,1033.8
2019-02-07T03:02:21.339Z,1033.77
2019-02-07T03:03:21.322Z,1033.77
2019-02-07T03:04:21.305Z,1033.72
2019-02-07T03:05:21.290Z,1033.7
2019-02-07T03:06:21.269Z,1033.68
2019-02-07T03:07:21.252Z,1033.64
2019-02-07T03:08:21.235Z,1033.66
2019-02-07T03:09:21.218Z,1033.62
2019-02-07T03:10:21.201Z,1033.61
2019-02-07T03:11:21.184Z,1033.57
2019-02-07T03:12:21.166Z,1033.6
2019-02-07T03:13:21.149Z,1033.58
2019-02-07T03:14:21.131Z,1033.6
2019-02-07T03:15:21.113Z,1033.59
2019-02-07T03:16:21.097Z,1033.56
2019-02-07T03:17:21.079Z,1033.52
2019-02-07T03:18:21.062Z,1033.5
2019-02-07T03:19:21.045Z,1033.55
2019-02-07T03:20:21.027Z,1033.52
2019-02-07T03:21:21.010Z,1033.49
2019-02-07T03:22:20.992Z,1033.5
2019-02-07T03:23:20.974Z,1033.44
2019-02-07T03:24:20.958Z,1033.41
2019-02-07T03:25:20.940Z,1033.39
2019-02-07T03:26:20.934Z,1033.36
2019-02-07T03:27:20.906Z,1033.33
2019-02-07T03:28:20.891Z,1033.4
2019-02-07T03:29:20.870Z,1033.38
2019-02-07T03:30:20.853Z,1033.41
2019-02-07T03:31:20.835Z,1033.42
2019-02-07T03:32:20.820Z,1033.39
2019-02-07T03:33:20.801Z,1033.37
2019-02-07T03:34:20.783Z,1033.38
2019-02-07T03:35:20.766Z,1033.36
2019-02-07T03:36:20.747Z,1033.39
2019-02-07T03:37:20.731Z,1033.36
2019-02-07T03:38:20.714Z,1033.34
2019-02-07T03:39:20.697Z,1033.36
2019-02-07T03:40:20.678Z,1033.32
2019-02-07T03:41:20.661Z,1033.34
2019-02-07T03:42:20.641Z,1033.3
2019-02-07T03:43:20.625Z,1033.29
2019-02-07T03:44:20.608Z,1033.28
2019-02-07T03:45:20.591Z,1033.3
2019-02-07T03:46:20.572Z,1033.29
2019-02-07T03:47:20.558Z,1033.3
2019-02-07T03:48:20.537Z,1033.26
2019-02-07T03:49:20.521Z,1033.28
2019-02-07T03:50:20.504Z,1033.27
2019-02-07T03:51:20.485Z,1033.22
2019-02-07T03:52:20.467Z,1033.23
2019-02-07T03:53:20.449Z,1033.22
2019-02-07T03:54:20.432Z,1033.26
2019-02-07T03:55:20.414Z,1033.24
2019-02-07T03:56:20.401Z,1033.22
2019-02-07T03:57:20.382Z,1033.26
2019-02-07T03:58:20.367Z,1033.26
2019-02-07T03:59:20.350Z,1033.25
2019-02-07T04:00:20.341Z,1033.29
2019-02-07T04:01:20.308Z,1033.27
2019-02-07T04:02:20.293Z,1033.24
2019-02-07T04:03:20.285Z,1033.28
2019-02-07T04:04:20.266Z,1033.26
2019-02-07T04:05:20.240Z,1033.31
2019-02-07T04:06:20.224Z,1033.28
2019-02-07T04:07:20.206Z,1033.31
2019-02-07T04:08:20.188Z,1033.26
2019-02-07T04:09:20.169Z,1033.3
2019-02-07T04:10:20.153Z,1033.29
2019-02-07T04:11:20.135Z,1033.27
2019-02-07T04:12:20.116Z,1033.28
2019-02-07T04:13:20.099Z,1033.28
2019-02-07T04:14:20.080Z,1033.26
2019-02-07T04:15:20.063Z,1033.25
2019-02-07T04:16:20.046Z,1033.25
2019-02-07T04:17:20.032Z,1033.26
2019-02-07T04:18:20.012Z,1033.32
2019-02-07T04:19:19.993Z,1033.31
2019-02-07T04:20:19.976Z,1033.27
2019-02-07T04:21:19.959Z,1033.31
2019-02-07T04:22:19.941Z,1033.28
2019-02-07T04:23:19.924Z,1033.28
2019-02-07T04:24:19.910Z,1033.26
2019-02-07T04:25:19.888Z,1033.26
2019-02-07T04:26:19.870Z,1033.25
2019-02-07T04:27:19.853Z,1033.23
2019-02-07T04:28:19.836Z,1033.21
2019-02-07T04:29:19.819Z,1033.2
2019-02-07T04:30:19.801Z,1033.21
2019-02-07T04:31:19.783Z,1033.22
2019-02-07T04:32:19.770Z,1033.19
2019-02-07T04:33:19.748Z,1033.2
2019-02-07T04:34:19.775Z,1033.17
2019-02-07T04:35:19.712Z,1033.18
2019-02-07T04:36:19.693Z,1033.18
2019-02-07T04:37:19.680Z,1033.14
2019-02-07T04:38:19.659Z,1033.13
2019-02-07T04:39:19.641Z,1033.14
2019-02-07T04:40:19.623Z,1033.14
2019-02-07T04:41:19.606Z,1033.12
2019-02-07T04:42:19.588Z,1033.14
2019-02-07T04:43:19.568Z,1033.14
2019-02-07T04:44:19.550Z,1033.13
2019-02-07T04:45:19.533Z,1033.11
2019-02-07T04:46:26.541Z,1033.1
2019-02-07T04:47:19.501Z,1033.09
2019-02-07T04:48:19.485Z,1033.09
2019-02-07T04:49:19.462Z,1033.07
2019-02-07T04:50:19.444Z,1033.11
2019-02-07T04:51:19.428Z,1033.12
2019-02-07T04:52:19.409Z,1033.07
2019-02-07T04:53:19.391Z,1033.03
2019-02-07T04:54:19.374Z,1033.05
2019-02-07T04:55:19.355Z,1033.02
2019-02-07T04:56:19.337Z,1033.05
2019-02-07T04:57:19.319Z,1033.06
2019-02-07T04:58:19.301Z,1033.02
2019-02-07T04:59:19.285Z,1033.02
2019-02-07T05:00:19.266Z,1032.99
2019-02-07T05:01:19.262Z,1032.99
2019-02-07T05:02:19.232Z,1032.96
2019-02-07T05:03:19.213Z,1032.92
2019-02-07T05:04:19.197Z,1032.97
2019-02-07T05:05:19.178Z,1032.96
2019-02-07T05:06:19.158Z,1032.93
2019-02-07T05:07:19.141Z,1032.91
2019-02-07T05:08:19.123Z,1032.88
2019-02-07T05:09:19.107Z,1032.88
2019-02-07T05:10:19.087Z,1032.87
2019-02-07T05:11:19.069Z,1032.82
2019-02-07T05:12:19.051Z,1032.8
2019-02-07T05:13:19.035Z,1032.85
2019-02-07T05:14:19.027Z,1032.83
2019-02-07T05:15:18.996Z,1032.81
2019-02-07T05:16:18.980Z,1032.74
2019-02-07T05:17:18.962Z,1032.72
2019-02-07T05:18:18.944Z,1032.68
2019-02-07T05:19:18.930Z,1032.67
2019-02-07T05:20:18.910Z,1032.66
2019-02-07T05:21:18.890Z,1032.72
2019-02-07T05:22:18.872Z,1032.63
2019-02-07T05:23:18.854Z,1032.66
2019-02-07T05:24:18.837Z,1032.61
2019-02-07T05:25:18.819Z,1032.62
2019-02-07T05:26:18.802Z,1032.57
2019-02-07T05:27:18.783Z,1032.62
2019-02-07T05:28:18.764Z,1032.58
2019-02-07T05:29:18.819Z,1032.58
2019-02-07T05:30:18.819Z,1032.55
2019-02-07T05:31:18.712Z,1032.5
2019-02-07T05:32:18.695Z,1032.5
2019-02-07T05:33:18.676Z,1032.5
2019-02-07T05:34:18.665Z,1032.5
2019-02-07T05:35:18.640Z,1032.45
2019-02-07T05:36:18.622Z,1032.43
2019-02-07T05:37:18.604Z,1032.43
2019-02-07T05:38:18.587Z,1032.39
2019-02-07T05:39:18.568Z,1032.37
2019-02-07T05:40:18.549Z,1032.29
2019-02-07T05:41:18.533Z,1032.2
2019-02-07T05:42:18.520Z,1032.06
2019-02-07T05:43:18.497Z,1032.1
2019-02-07T05:44:18.480Z,1032.06
2019-02-07T05:45:18.467Z,1032.07
2019-02-07T05:46:18.444Z,1031.98
2019-02-07T05:47:18.428Z,1031.98
2019-02-07T05:48:18.409Z,1031.92
2019-02-07T05:49:18.392Z,1031.91
2019-02-07T05:50:18.375Z,1031.89
2019-02-07T05:51:18.356Z,1031.82
2019-02-07T05:52:18.339Z,1031.84
2019-02-07T05:53:18.322Z,1031.84
2019-02-07T05:54:18.305Z,1031.81
2019-02-07T05:55:18.286Z,1031.83
2019-02-07T05:56:18.275Z,1031.82
2019-02-07T05:57:18.251Z,1031.81
2019-02-07T05:58:18.233Z,1031.81
2019-02-07T05:59:18.217Z,1031.83
2019-02-07T06:00:18.200Z,1031.84
2019-02-07T06:01:18.181Z,1031.86
2019-02-07T06:02:18.163Z,1031.85
2019-02-07T06:03:18.164Z,1031.88
2019-02-07T06:04:18.129Z,1031.9
2019-02-07T06:05:18.111Z,1031.89
2019-02-07T06:06:18.101Z,1031.91
2019-02-07T06:07:18.077Z,1031.9
2019-02-07T06:08:18.058Z,1031.87
2019-02-07T06:09:18.040Z,1031.91
2019-02-07T06:10:18.024Z,1031.89
2019-02-07T06:11:18.007Z,1031.97
2019-02-07T06:12:17.988Z,1031.88
2019-02-07T06:13:17.973Z,1031.86
2019-02-07T06:14:17.970Z,1031.86
2019-02-07T06:15:17.938Z,1031.91
2019-02-07T06:16:17.918Z,1031.88
2019-02-07T06:17:17.901Z,1031.89
2019-02-07T06:18:17.884Z,1031.86
2019-02-07T06:19:17.866Z,1031.88
2019-02-07T06:20:17.848Z,1031.88
2019-02-07T06:21:17.833Z,1031.88
2019-02-07T06:22:17.813Z,1031.88
2019-02-07T06:23:17.794Z,1031.83
2019-02-07T06:24:17.778Z,1031.87
2019-02-07T06:25:17.762Z,1031.87
2019-02-07T06:26:17.745Z,1031.9
2019-02-07T06:27:17.734Z,1031.88
2019-02-07T06:28:17.708Z,1031.83
2019-02-07T06:29:17.689Z,1031.87
2019-02-07T06:30:17.671Z,1031.83
2019-02-07T06:31:17.658Z,1031.86
2019-02-07T06:33:17.620Z,1031.84
2019-02-07T06:34:28.319Z,1031.91
2019-02-07T06:35:17.584Z,1031.84
2019-02-07T06:36:17.568Z,1031.86
2019-02-07T06:37:17.551Z,1031.84
2019-02-07T06:38:17.540Z,1031.78
2019-02-07T06:39:17.514Z,1031.78
2019-02-07T06:40:17.496Z,1031.76
2019-02-07T06:41:17.479Z,1031.78
2019-02-07T06:42:17.461Z,1031.75
2019-02-07T06:43:17.446Z,1031.74
2019-02-07T06:44:17.428Z,1031.67
2019-02-07T06:45:17.407Z,1031.66
2019-02-07T06:46:17.391Z,1031.61
2019-02-07T06:47:17.374Z,1031.55
2019-02-07T06:48:17.356Z,1031.56
2019-02-07T06:49:17.338Z,1031.53
2019-02-07T06:50:17.322Z,1031.51
2019-02-07T06:51:17.303Z,1031.43
2019-02-07T06:52:17.287Z,1031.43
2019-02-07T06:53:17.267Z,1031.41
2019-02-07T06:54:17.250Z,1031.33
2019-02-07T06:55:17.232Z,1031.29
2019-02-07T06:56:17.214Z,1031.22
2019-02-07T06:57:17.197Z,1031.13
2019-02-07T06:58:17.181Z,1031.1
2019-02-07T06:59:17.163Z,1031.01
2019-02-07T07:00:17.147Z,1030.97
2019-02-07T07:01:17.128Z,1030.9
2019-02-07T07:02:17.111Z,1030.77
2019-02-07T07:03:17.093Z,1030.71
2019-02-07T07:04:17.075Z,1030.61
2019-02-07T07:05:17.059Z,1030.6
2019-02-07T07:06:17.042Z,1030.55
2019-02-07T07:07:17.025Z,1030.48
2019-02-07T07:08:17.009Z,1030.47
2019-02-07T07:09:18.084Z,1030.42
2019-02-07T07:10:16.975Z,1030.34
2019-02-07T07:11:16.956Z,1030.31
2019-02-07T07:12:16.939Z,1030.29
2019-02-07T07:13:16.923Z,1030.25
2019-02-07T07:14:16.905Z,1030.21
2019-02-07T07:15:16.928Z,1030.21
2019-02-07T07:16:16.871Z,1030.07
2019-02-07T07:17:25.196Z,1030.04
2019-02-07T07:18:16.837Z,1030.08
2019-02-07T07:19:16.822Z,1030.01
2019-02-07T07:20:16.805Z,1030.01
2019-02-07T07:21:16.788Z,1030
2019-02-07T07:22:16.770Z,1029.94
2019-02-07T07:23:16.755Z,1029.99
2019-02-07T07:24:16.739Z,1029.93
2019-02-07T07:25:16.722Z,1029.92
2019-02-07T07:26:16.708Z,1029.91
2019-02-07T07:27:16.688Z,1029.89
2019-02-07T07:28:16.672Z,1029.86
2019-02-07T07:29:16.655Z,1029.85
2019-02-07T07:30:16.638Z,1029.77
2019-02-07T07:31:16.624Z,1029.76
2019-02-07T07:32:16.608Z,1029.7
2019-02-07T07:33:16.591Z,1029.66
2019-02-07T07:34:16.576Z,1029.61
2019-02-07T07:35:16.563Z,1029.56
2019-02-07T07:36:16.543Z,1029.6
2019-02-07T07:37:16.527Z,1029.54
2019-02-07T07:38:16.512Z,1029.45
2019-02-07T07:39:16.495Z,1029.4
2019-02-07T07:40:16.478Z,1029.43
2019-02-07T07:41:16.463Z,1029.4
2019-02-07T07:42:16.446Z,1029.29
2019-02-07T07:43:16.432Z,1029.3
2019-02-07T07:44:16.414Z,1029.25
2019-02-07T07:45:16.399Z,1029.2
2019-02-07T07:46:16.385Z,1029.1
2019-02-07T07:47:16.366Z,1029.03
2019-02-07T07:48:16.354Z,1029.02
2019-02-07T07:49:16.335Z,1029.02
2019-02-07T07:50:16.319Z,1028.98
2019-02-07T07:51:16.304Z,1028.96
2019-02-07T07:52:16.288Z,1028.93
2019-02-07T07:53:16.271Z,1028.88
2019-02-07T07:54:16.255Z,1028.82
2019-02-07T07:55:16.242Z,1028.74
2019-02-07T07:56:16.225Z,1028.69
2019-02-07T07:57:16.210Z,1028.69
2019-02-07T07:58:16.194Z,1028.62
2019-02-07T07:59:16.178Z,1028.58
2019-02-07T08:00:18.809Z,1028.51
2019-02-07T08:01:16.150Z,1028.48
2019-02-07T08:02:16.132Z,1028.48
2019-02-07T08:03:16.117Z,1028.42
2019-02-07T08:04:16.102Z,1028.38
2019-02-07T08:05:16.085Z,1028.36
2019-02-07T08:06:16.070Z,1028.31
2019-02-07T08:07:16.056Z,1028.25
2019-02-07T08:08:16.041Z,1028.22
2019-02-07T08:09:16.025Z,1028.16
2019-02-07T08:10:16.010Z,1028.16
2019-02-07T08:11:15.995Z,1028.13
2019-02-07T08:12:15.980Z,1028.08
2019-02-07T08:13:15.963Z,1028.03
2019-02-07T08:14:15.949Z,1027.98
2019-02-07T08:15:15.938Z,1027.91
2019-02-07T08:16:15.919Z,1027.87
2019-02-07T08:17:15.905Z,1027.85
2019-02-07T08:18:15.890Z,1027.85
2019-02-07T08:19:15.875Z,1027.78
2019-02-07T08:20:15.860Z,1027.76
2019-02-07T08:21:15.847Z,1027.77
2019-02-07T08:22:15.830Z,1027.73
2019-02-07T08:23:15.816Z,1027.75
2019-02-07T08:24:15.801Z,1027.75
2019-02-07T08:25:15.787Z,1027.62
2019-02-07T08:26:15.772Z,1027.56
2019-02-07T08:27:15.757Z,1027.5
2019-02-07T08:28:15.743Z,1027.45
2019-02-07T08:29:15.729Z,1027.36
2019-02-07T08:30:15.714Z,1027.33
2019-02-07T08:31:15.699Z,1027.21
2019-02-07T08:32:15.691Z,1027.21
2019-02-07T08:33:15.671Z,1027.18
2019-02-07T08:34:15.657Z,1027.11
2019-02-07T08:35:15.642Z,1026.96
2019-02-07T08:36:15.628Z,1026.9
2019-02-07T08:37:15.614Z,1026.8
2019-02-07T08:38:15.600Z,1026.82
2019-02-07T08:39:15.586Z,1026.8
2019-02-07T08:40:15.572Z,1026.74
2019-02-07T08:41:15.558Z,1026.64
2019-02-07T08:42:15.543Z,1026.62
2019-02-07T08:43:15.529Z,1026.56
2019-02-07T08:44:15.517Z,1026.54
2019-02-07T08:45:15.512Z,1026.53
2019-02-07T08:46:15.487Z,1026.51
2019-02-07T08:47:15.474Z,1026.5
2019-02-07T08:48:15.462Z,1026.47
2019-02-07T08:49:15.446Z,1026.47
2019-02-07T08:50:15.433Z,1026.44
2019-02-07T08:51:15.419Z,1026.39
2019-02-07T08:52:15.406Z,1026.39
2019-02-07T08:53:15.405Z,1026.32
2019-02-07T08:54:15.379Z,1026.33
2019-02-07T08:55:15.366Z,1026.33
2019-02-07T08:56:15.352Z,1026.35
2019-02-07T08:57:15.338Z,1026.37
2019-02-07T08:58:15.324Z,1026.4
2019-02-07T08:59:15.311Z,1026.37
2019-02-07T09:00:15.296Z,1026.38
2019-02-07T09:01:15.284Z,1026.42
2019-02-07T09:02:15.270Z,1026.41
2019-02-07T09:03:15.258Z,1026.31
2019-02-07T09:04:15.244Z,1026.32
2019-02-07T09:05:15.233Z,1026.3
2019-02-07T09:06:15.217Z,1026.32
2019-02-07T09:07:15.203Z,1026.29
2019-02-07T09:08:15.192Z,1026.27
2019-02-07T09:09:15.181Z,1026.19
2019-02-07T09:10:15.165Z,1026.19
2019-02-07T09:11:15.151Z,1026.12
2019-02-07T09:12:15.137Z,1026.12
2019-02-07T09:13:15.124Z,1026.03
2019-02-07T09:14:15.111Z,1026
2019-02-07T09:15:15.100Z,1025.94
2019-02-07T09:16:15.083Z,1025.9
2019-02-07T09:17:15.071Z,1025.89
2019-02-07T09:18:15.058Z,1025.89
2019-02-07T09:19:15.044Z,1025.88
2019-02-07T09:20:15.031Z,1025.85
2019-02-07T09:21:15.018Z,1025.83
2019-02-07T09:22:15.004Z,1025.81
2019-02-07T09:23:14.991Z,1025.87
2019-02-07T09:24:14.976Z,1025.83
2019-02-07T09:25:14.964Z,1025.83
2019-02-07T09:26:14.958Z,1025.75
2019-02-07T09:27:14.937Z,1025.78
2019-02-07T09:28:14.927Z,1025.78
2019-02-07T09:29:14.910Z,1025.72
2019-02-07T09:30:14.897Z,1025.71
2019-02-07T09:31:14.884Z,1025.72
2019-02-07T09:32:14.876Z,1025.72
2019-02-07T09:33:14.857Z,1025.72
2019-02-07T09:34:14.851Z,1025.72
2019-02-07T09:35:14.832Z,1025.72
2019-02-07T09:36:14.818Z,1025.72
2019-02-07T09:37:14.803Z,1025.69
2019-02-07T09:38:14.789Z,1025.65
2019-02-07T09:39:14.776Z,1025.61
2019-02-07T09:40:14.763Z,1025.58
2019-02-07T09:41:14.751Z,1025.55
2019-02-07T09:42:14.737Z,1025.48
2019-02-07T09:43:14.725Z,1025.48
2019-02-07T09:44:14.711Z,1025.44
2019-02-07T09:45:14.698Z,1025.4
2019-02-07T09:46:14.685Z,1025.32
2019-02-07T09:47:14.672Z,1025.24
2019-02-07T09:48:21.288Z,1025.19
2019-02-07T09:49:14.646Z,1025.14
2019-02-07T09:50:14.636Z,1025.07
2019-02-07T09:51:14.617Z,1025.1
2019-02-07T09:52:14.606Z,1024.93
2019-02-07T09:53:23.654Z,1024.92
2019-02-07T09:54:14.580Z,1025.03
2019-02-07T09:55:14.569Z,1025.04
2019-02-07T09:56:14.554Z,1025.07
2019-02-07T09:57:14.541Z,1025.12
2019-02-07T09:58:14.528Z,1025.16
2019-02-07T09:59:14.515Z,1025.15
2019-02-07T10:00:14.502Z,1025.13
2019-02-07T10:01:14.490Z,1025.13
2019-02-07T10:02:14.476Z,1025.13
2019-02-07T10:03:14.463Z,1025.09
2019-02-07T10:04:14.451Z,1025.12
2019-02-07T10:05:14.443Z,1025.08
2019-02-07T10:06:14.524Z,1025.04
2019-02-07T10:07:14.412Z,1025.04
2019-02-07T10:08:14.401Z,1025
2019-02-07T10:09:14.387Z,1024.96
2019-02-07T10:10:14.373Z,1024.95
2019-02-07T10:11:14.362Z,1024.9
2019-02-07T10:12:14.349Z,1024.97
2019-02-07T10:13:14.335Z,1024.95
2019-02-07T10:14:14.322Z,1024.89
2019-02-07T10:15:14.455Z,1024.87
2019-02-07T10:16:14.297Z,1024.81
2019-02-07T10:17:14.284Z,1024.81
2019-02-07T10:18:14.270Z,1024.81
2019-02-07T10:19:14.257Z,1024.83
2019-02-07T10:20:14.246Z,1024.79
2019-02-07T10:21:14.232Z,1024.76
2019-02-07T10:22:14.221Z,1024.77
2019-02-07T10:23:14.207Z,1024.81
2019-02-07T10:24:14.195Z,1024.76
2019-02-07T10:25:14.183Z,1024.73
2019-02-07T10:26:14.170Z,1024.72
2019-02-07T10:27:14.159Z,1024.77
2019-02-07T10:28:14.146Z,1024.73
2019-02-07T10:29:14.133Z,1024.77
2019-02-07T10:30:14.119Z,1024.78
2019-02-07T10:31:14.110Z,1024.76
2019-02-07T10:32:14.096Z,1024.79
2019-02-07T10:33:14.082Z,1024.79
2019-02-07T10:34:14.070Z,1024.8
2019-02-07T10:35:22.566Z,1024.78
2019-02-07T10:36:14.046Z,1024.74
2019-02-07T10:37:14.033Z,1024.68
2019-02-07T10:38:14.021Z,1024.64
2019-02-07T10:39:14.009Z,1024.52
2019-02-07T10:40:13.996Z,1024.43
2019-02-07T10:41:13.986Z,1024.41
2019-02-07T10:42:13.973Z,1024.46
2019-02-07T10:43:13.960Z,1024.41
2019-02-07T10:44:13.948Z,1024.38
2019-02-07T10:45:13.940Z,1024.37
2019-02-07T10:46:13.923Z,1024.31
2019-02-07T10:47:13.912Z,1024.33
2019-02-07T10:48:13.900Z,1024.35
2019-02-07T10:49:13.888Z,1024.38
2019-02-07T10:50:13.875Z,1024.36
2019-02-07T10:51:13.863Z,1024.4
2019-02-07T10:52:13.851Z,1024.4
2019-02-07T10:53:13.837Z,1024.47
2019-02-07T10:54:13.825Z,1024.5
2019-02-07T10:55:13.813Z,1024.47
2019-02-07T10:56:13.802Z,1024.46
2019-02-07T10:57:13.790Z,1024.39
2019-02-07T10:58:13.778Z,1024.44
2019-02-07T10:59:13.765Z,1024.39
2019-02-07T11:00:13.754Z,1024.33
2019-02-07T11:01:13.742Z,1024.37
2019-02-07T11:02:13.729Z,1024.3
2019-02-07T11:03:13.717Z,1024.25
2019-02-07T11:04:13.703Z,1024.26
2019-02-07T11:05:13.691Z,1024.19
2019-02-07T11:06:13.680Z,1024.2
2019-02-07T11:07:13.668Z,1024.23
2019-02-07T11:08:13.655Z,1024.2
2019-02-07T11:09:13.643Z,1024.12
2019-02-07T11:10:13.631Z,1024.08
2019-02-07T11:11:13.619Z,1024.16
2019-02-07T11:12:13.606Z,1024.19
2019-02-07T11:13:13.595Z,1024.2
2019-02-07T11:14:13.582Z,1024.22
2019-02-07T11:15:13.569Z,1024.1
2019-02-07T11:16:13.557Z,1024.1
2019-02-07T11:17:13.545Z,1024.14
2019-02-07T11:18:13.533Z,1024.09
2019-02-07T11:19:20.848Z,1024.02
2019-02-07T11:20:13.508Z,1023.99
2019-02-07T11:21:13.496Z,1023.94
2019-02-07T11:22:13.484Z,1023.97
2019-02-07T11:23:13.471Z,1023.98
2019-02-07T11:24:13.459Z,1024
2019-02-07T11:25:13.448Z,1024.09
2019-02-07T11:26:13.438Z,1024.06
2019-02-07T11:27:13.423Z,1024.12
2019-02-07T11:28:13.410Z,1024.11
2019-02-07T11:29:13.399Z,1024.02
2019-02-07T11:30:13.385Z,1023.89
2019-02-07T11:31:13.372Z,1023.87
2019-02-07T11:32:13.362Z,1023.87
2019-02-07T11:33:13.350Z,1023.73
2019-02-07T11:34:13.337Z,1023.64
2019-02-07T11:35:13.325Z,1023.55
2019-02-07T11:36:13.313Z,1023.39
2019-02-07T11:37:13.301Z,1023.28
2019-02-07T11:38:13.287Z,1023.26
2019-02-07T11:39:13.276Z,1023.18
2019-02-07T11:40:13.265Z,1023.1
2019-02-07T11:41:13.252Z,1023.07
2019-02-07T11:42:13.240Z,1023.07
2019-02-07T11:43:13.230Z,1023.06
2019-02-07T11:44:13.217Z,1023.05
2019-02-07T11:45:13.203Z,1022.95
2019-02-07T11:46:13.193Z,1022.92
2019-02-07T11:47:13.181Z,1022.93
2019-02-07T11:48:13.169Z,1022.9
2019-02-07T11:49:13.165Z,1022.9
2019-02-07T11:50:13.147Z,1022.82
2019-02-07T11:51:13.134Z,1022.74
2019-02-07T11:52:13.123Z,1022.62
2019-02-07T11:53:13.111Z,1022.58
2019-02-07T11:54:13.099Z,1022.54
2019-02-07T11:55:13.138Z,1022.43
2019-02-07T11:56:13.075Z,1022.35
2019-02-07T11:57:13.065Z,1022.46
2019-02-07T11:58:13.054Z,1022.45
2019-02-07T11:59:13.042Z,1022.41
2019-02-07T12:00:13.031Z,1022.32
2019-02-07T12:01:13.020Z,1022.27
2019-02-07T12:02:13.007Z,1022.26
2019-02-07T12:03:13.001Z,1022.33
2019-02-07T12:04:12.988Z,1022.41
2019-02-07T12:05:12.975Z,1022.37
2019-02-07T12:06:12.964Z,1022.37
2019-02-07T12:07:12.952Z,1022.34
2019-02-07T12:08:12.943Z,1022.38
2019-02-07T12:09:12.929Z,1022.4